createdAt,value
2022-09-30T00:04:53.302Z,11.02
2022-09-30T00:09:54.095Z,12.45
2022-09-30T00:14:56.579Z,14.07
2022-09-30T00:19:57.305Z,15.43
2022-09-30T00:24:58.106Z,13.60
2022-09-30T00:30:00.219Z,10.77
2022-09-30T00:35:00.969Z,10.95
2022-09-30T00:40:01.839Z,12.45
2022-09-30T00:45:08.148Z,11.60
2022-09-30T00:50:20.137Z,11.90
2022-09-30T00:55:50.879Z,9.93
2022-09-30T01:00:53.192Z,13.88
2022-09-30T01:05:54.706Z,10.77
2022-09-30T01:10:55.795Z,12.52
2022-09-30T01:16:17.857Z,11.57
2022-09-30T01:21:46.708Z,13.82
2022-09-30T01:27:06.096Z,9.95
2022-09-30T01:32:19.081Z,13.88
2022-09-30T01:37:29.247Z,10.23
2022-09-30T01:42:40.428Z,16.98
2022-09-30T01:47:47.164Z,13.70
2022-09-30T01:52:57.249Z,12.32
2022-09-30T01:58:01.889Z,13.75
2022-09-30T02:03:10.837Z,14.18
2022-09-30T02:08:30.167Z,12.20
2022-09-30T02:13:37.350Z,17.02
2022-09-30T02:18:42.707Z,17.33
2022-09-30T02:23:46.855Z,20.77
2022-09-30T02:28:52.873Z,15.77
2022-09-30T02:33:59.551Z,12.65
2022-09-30T02:39:04.234Z,13.55
2022-09-30T02:44:05.691Z,13.80
2022-09-30T02:49:12.626Z,12.73
2022-09-30T02:54:20.657Z,16.17
2022-09-30T02:59:22.874Z,13.07
2022-09-30T03:04:28.175Z,13.63
2022-09-30T03:09:29.340Z,14.60
2022-09-30T03:14:43.271Z,14.40
2022-09-30T03:20:08.753Z,13.88
2022-09-30T03:25:28.512Z,15.25
2022-09-30T03:30:33.054Z,17.23
2022-09-30T03:35:43.766Z,15.20
2022-09-30T03:40:54.403Z,12.38
2022-09-30T03:46:02.490Z,14.20
2022-09-30T03:51:06.617Z,16.08
2022-09-30T03:56:07.855Z,15.15
2022-09-30T04:01:09.209Z,18.63
2022-09-30T04:06:14.562Z,17.10
2022-09-30T04:11:16.218Z,17.95
2022-09-30T04:16:16.983Z,18.38
2022-09-30T04:21:19.128Z,15.75
2022-09-30T04:26:20.574Z,12.80
2022-09-30T04:31:21.605Z,16.48
2022-09-30T04:36:24.004Z,20.58
2022-09-30T04:41:25.063Z,15.10
2022-09-30T04:46:25.903Z,17.70
2022-09-30T04:51:28.274Z,22.08
2022-09-30T04:56:29.072Z,20.98
2022-09-30T05:01:29.845Z,18.05
2022-09-30T05:06:31.944Z,15.25
2022-09-30T05:11:32.732Z,15.43
2022-09-30T05:16:33.562Z,20.52
2022-09-30T05:21:35.845Z,23.65
2022-09-30T05:26:36.662Z,21.33
2022-09-30T05:31:37.582Z,19.35
2022-09-30T05:36:40.015Z,18.92
2022-09-30T05:41:40.807Z,22.80
2022-09-30T05:46:41.589Z,26.33
2022-09-30T05:51:44.315Z,22.67
2022-09-30T05:56:45.093Z,16.23
2022-09-30T06:01:45.923Z,18.20
2022-09-30T06:06:48.696Z,22.27
2022-09-30T06:11:49.453Z,18.58
2022-09-30T06:16:50.638Z,20.65
2022-09-30T06:21:52.928Z,18.88
2022-09-30T06:26:54.332Z,19.85
2022-09-30T06:31:55.255Z,17.73
2022-09-30T06:36:57.482Z,20.58
2022-09-30T06:41:58.346Z,20.60
2022-09-30T06:46:59.810Z,18.73
2022-09-30T06:52:02.431Z,14.32
2022-09-30T06:57:03.210Z,16.48
2022-09-30T07:02:04.089Z,16.92
2022-09-30T07:07:06.918Z,18.50
2022-09-30T07:12:07.709Z,15.68
2022-09-30T07:17:08.460Z,12.98
2022-09-30T07:22:30.162Z,13.23
2022-09-30T07:27:33.536Z,12.45
2022-09-30T07:32:34.337Z,12.32
2022-09-30T07:37:37.035Z,15.00
2022-09-30T07:42:38.953Z,13.27
2022-09-30T07:47:39.778Z,11.93
2022-09-30T07:52:41.870Z,13.48
2022-09-30T07:57:42.655Z,12.40
2022-09-30T08:02:43.417Z,12.50
2022-09-30T08:07:45.534Z,11.32
2022-09-30T08:12:46.270Z,13.63
2022-09-30T08:17:47.004Z,12.38
2022-09-30T08:22:49.635Z,11.63
2022-09-30T08:27:50.771Z,11.10
2022-09-30T08:32:51.579Z,9.70
2022-09-30T08:37:54.737Z,13.65
2022-09-30T08:43:13.773Z,9.38
2022-09-30T08:48:31.050Z,10.30
2022-09-30T08:53:37.662Z,8.77
2022-09-30T08:58:42.124Z,10.05
2022-09-30T09:03:43.121Z,8.55
2022-09-30T09:08:59.547Z,11.35
2022-09-30T09:14:04.013Z,9.55
2022-09-30T09:19:10.771Z,10.55
2022-09-30T09:24:17.328Z,9.73
2022-09-30T09:29:35.486Z,8.57
2022-09-30T09:34:39.642Z,9.55
2022-09-30T09:40:09.759Z,7.80
2022-09-30T09:45:17.883Z,8.20
2022-09-30T09:50:25.219Z,10.07
2022-09-30T09:55:27.653Z,6.93
2022-09-30T10:00:46.291Z,10.07
2022-09-30T10:05:59.729Z,5.88
2022-09-30T10:11:04.288Z,5.38
2022-09-30T10:16:06.235Z,4.68
2022-09-30T10:21:20.332Z,7.30
2022-09-30T10:26:24.717Z,6.78
2022-09-30T10:31:28.341Z,6.28
2022-09-30T10:36:33.401Z,5.30
2022-09-30T10:41:38.095Z,5.10
2022-09-30T10:46:41.370Z,7.38
2022-09-30T10:51:47.133Z,3.70
2022-09-30T10:56:54.565Z,4.30
2022-09-30T11:02:05.235Z,4.50
2022-09-30T11:07:17.922Z,3.22
2022-09-30T11:12:26.983Z,4.50
2022-09-30T11:17:33.853Z,3.72
2022-09-30T11:22:47.887Z,5.05
2022-09-30T11:28:09.652Z,4.13
2022-09-30T11:33:36.242Z,3.55
2022-09-30T11:39:05.370Z,3.00
2022-09-30T11:44:23.032Z,3.40
2022-09-30T11:49:39.408Z,4.45
2022-09-30T11:55:00.972Z,8.88
2022-09-30T12:00:08.244Z,6.47
2022-09-30T12:05:20.690Z,3.20
2022-09-30T12:10:25.740Z,1.98
2022-09-30T12:15:28.710Z,3.00
2022-09-30T12:20:33.480Z,5.55
2022-09-30T12:25:41.698Z,3.50
2022-09-30T12:30:44.453Z,3.90
2022-09-30T12:36:20.462Z,6.88
2022-09-30T12:41:35.325Z,2.53
2022-09-30T12:47:03.891Z,2.20
2022-09-30T12:52:07.656Z,3.30
2022-09-30T12:57:10.231Z,2.80
2022-09-30T13:02:31.831Z,3.72
2022-09-30T13:07:34.466Z,2.45
2022-09-30T13:12:46.753Z,3.08
2022-09-30T13:17:51.562Z,3.97
2022-09-30T13:22:59.979Z,2.45
2022-09-30T13:28:29.879Z,3.17
2022-09-30T13:33:47.204Z,1.80
2022-09-30T13:39:09.697Z,3.22
2022-09-30T13:44:17.771Z,2.78
2022-09-30T13:49:23.697Z,5.63
2022-09-30T13:54:30.126Z,2.33
2022-09-30T14:00:01.788Z,3.35
2022-09-30T14:05:36.381Z,5.05
2022-09-30T14:10:54.346Z,4.70
2022-09-30T14:16:36.934Z,4.22
2022-09-30T14:21:43.033Z,3.17
2022-09-30T14:27:01.985Z,4.30
2022-09-30T14:32:12.678Z,3.17
2022-09-30T14:37:22.755Z,2.22
2022-09-30T14:42:29.617Z,3.15
2022-09-30T14:47:32.044Z,2.22
2022-09-30T14:52:37.988Z,3.05
2022-09-30T14:57:38.905Z,2.70
2022-09-30T15:02:46.808Z,4.95
2022-09-30T15:07:49.338Z,2.08
2022-09-30T15:12:51.666Z,7.82
2022-09-30T15:17:55.446Z,1.77
2022-09-30T15:22:59.897Z,2.88
2022-09-30T15:28:00.809Z,2.88
2022-09-30T15:33:03.392Z,5.32
2022-09-30T15:38:10.942Z,3.50
2022-09-30T15:43:15.684Z,2.03
2022-09-30T15:48:36.070Z,3.95
2022-09-30T15:53:50.007Z,2.42
2022-09-30T15:58:56.510Z,5.57
2022-09-30T16:03:59.410Z,3.53
2022-09-30T16:09:06.500Z,2.35
2022-09-30T16:14:11.292Z,3.72
2022-09-30T16:19:18.392Z,3.80
2022-09-30T16:24:47.290Z,4.05
2022-09-30T16:29:48.107Z,3.03
2022-09-30T16:34:48.973Z,9.80
2022-09-30T16:39:51.496Z,5.07
2022-09-30T16:44:52.284Z,6.07
2022-09-30T16:49:53.252Z,3.05
2022-09-30T16:54:55.410Z,5.47
2022-09-30T16:59:56.274Z,3.67
2022-09-30T17:04:57.068Z,6.75
2022-09-30T17:09:59.679Z,5.68
2022-09-30T17:15:00.425Z,10.60
2022-09-30T17:20:01.277Z,6.38
2022-09-30T17:25:03.521Z,6.70
2022-09-30T17:30:05.020Z,7.35
2022-09-30T17:35:08.405Z,5.45
2022-09-30T17:40:25.164Z,4.78
2022-09-30T17:45:27.966Z,7.07
2022-09-30T17:50:29.015Z,8.23
2022-09-30T17:55:31.307Z,11.32
2022-09-30T18:00:32.602Z,11.00
2022-09-30T18:05:34.121Z,10.73
2022-09-30T18:10:38.660Z,12.45
2022-09-30T18:15:40.644Z,14.32
2022-09-30T18:20:44.913Z,12.23
2022-09-30T18:25:49.623Z,16.58
2022-09-30T18:30:50.435Z,13.13
2022-09-30T18:35:51.745Z,9.70
2022-09-30T18:40:54.545Z,11.10
2022-09-30T18:45:56.847Z,11.25
2022-09-30T18:51:03.337Z,11.02
2022-09-30T18:56:06.113Z,10.57
2022-09-30T19:01:07.780Z,11.70
2022-09-30T19:06:09.414Z,14.23
2022-09-30T19:11:14.744Z,11.40
2022-09-30T19:16:18.367Z,11.00
2022-09-30T19:21:22.169Z,12.63
2022-09-30T19:26:27.097Z,13.85
2022-09-30T19:31:28.479Z,11.18
2022-09-30T19:36:41.348Z,10.68
2022-09-30T19:41:49.986Z,13.50
2022-09-30T19:46:51.210Z,11.35
2022-09-30T19:51:53.255Z,10.25
2022-09-30T19:56:55.336Z,14.45
2022-09-30T20:01:56.190Z,14.23
2022-09-30T20:06:57.020Z,14.77
2022-09-30T20:11:59.212Z,15.15
2022-09-30T20:17:00.022Z,13.70
2022-09-30T20:22:00.911Z,15.77
2022-09-30T20:27:03.011Z,12.07
2022-09-30T20:32:04.003Z,12.45
2022-09-30T20:37:04.799Z,12.63
2022-09-30T20:42:07.496Z,12.75
2022-09-30T20:47:08.206Z,10.65
2022-09-30T20:52:08.947Z,14.75
2022-09-30T20:57:11.013Z,14.77
2022-09-30T21:02:14.099Z,11.70
2022-09-30T21:07:14.980Z,10.82
2022-09-30T21:12:17.243Z,12.65
2022-09-30T21:17:17.991Z,11.20
2022-09-30T21:22:18.767Z,12.23
2022-09-30T21:27:20.857Z,10.25
2022-09-30T21:32:21.634Z,13.07
2022-09-30T21:37:22.406Z,12.43
2022-09-30T21:42:24.515Z,12.43
2022-09-30T21:47:25.410Z,14.50
2022-09-30T21:52:28.604Z,15.43
2022-09-30T21:57:34.135Z,14.80
2022-09-30T22:02:36.291Z,15.40
2022-09-30T22:07:38.042Z,17.02
2022-09-30T22:12:40.332Z,13.20
2022-09-30T22:17:41.152Z,13.75
2022-09-30T22:22:41.877Z,16.83
2022-09-30T22:27:44.173Z,12.73
2022-09-30T22:32:44.965Z,17.45
2022-09-30T22:38:09.496Z,14.80
2022-09-30T22:43:11.564Z,14.93
2022-09-30T22:48:21.286Z,17.60
2022-09-30T22:53:22.025Z,14.55
2022-09-30T22:58:25.280Z,18.10
2022-09-30T23:03:26.952Z,16.45
2022-09-30T23:08:31.996Z,13.38
2022-09-30T23:13:34.897Z,15.43
2022-09-30T23:18:36.001Z,16.73
2022-09-30T23:23:38.125Z,13.13
2022-09-30T23:28:40.819Z,16.20
2022-09-30T23:33:47.101Z,14.13
2022-09-30T23:38:48.178Z,12.57
2022-09-30T23:43:50.280Z,14.95
2022-09-30T23:48:51.159Z,15.73
2022-09-30T23:53:51.896Z,13.18
2022-09-30T23:58:53.984Z,15.23
